• Join FlightAware (Why Join?)
  • Login
  • US Flag 
02:34AM EDT


 

Airport Tracker/Info


-or-


 

Live Flight TrackerFlight Track Log ✈ N182BP ✈ 01-Aug-2013 ✈ I63 - KALO

Flight Track Log - Related Links

Times and Time Zones

All times are in EDT time to prevent confusion due to time zone crossing. See the N182BP flight status page for this flight to view local times or setup timezone preferences in your user account.

Time Position Orientation Groundspeed Altitude Reporting Facility
EDT Latitude Longitude Course Direction KTS MPH feet Rate Location/Type
04:43PM 40.0567 -90.8444 333° Northwest 84 97 4,000  Level Kansas City Center
04:44PM 40.0781 -90.8647 324° Northwest 84 97 4,800 720 Climbing Kansas City Center
04:45PM 40.0997 -90.8811 330° Northwest 87 100 5,600 480 Climbing Kansas City Center
04:46PM 40.1275 -90.8939 341° North 88 101 5,900 120 Climbing Kansas City Center
04:47PM 40.1594 -90.9119 337° Northwest 112 129 5,900  Level Kansas City Center
04:48PM 40.1909 -90.9161 333° Northwest  Level FlightAware Approximate
04:48PM 40.1914 -90.9294 337° Northwest 121 139 5,900  Level Kansas City Center
04:49PM 40.2214 -90.9456 338° Northwest 118 136 5,900  Level Kansas City Center
04:51PM 40.2539 -90.9656 335° Northwest 120 138 5,900  Level Kansas City Center
04:52PM 40.2825 -90.9833 335° Northwest 118 136 5,900  Level Kansas City Center
04:53PM 40.3167 -91.0036 336° Northwest 117 135 5,900  Level Kansas City Center
04:54PM 40.3492 -91.0219 337° Northwest 122 140 5,900  Level Kansas City Center
04:55PM 40.3783 -91.0406 334° Northwest 121 139 5,900  Level Kansas City Center
04:56PM 40.4056 -91.0592 332° Northwest 116 133 5,900  Level Kansas City Center
04:57PM 40.4353 -91.0764 336° Northwest 115 132 5,900  Level Kansas City Center
04:58PM 40.4700 -91.0961 337° Northwest 122 140 5,900  Level Kansas City Center
04:59PM 40.5025 -91.1150 336° Northwest 127 146 5,900  Level Kansas City Center
05:00PM 40.5350 -91.1367 333° Northwest 116 133 5,900  Level Kansas City Center
05:01PM 40.5656 -91.1539 337° Northwest 117 135 5,900  Level Kansas City Center
05:02PM 40.5961 -91.1728 335° Northwest 119 137 5,900  Level Kansas City Center
05:03PM 40.6267 -91.1906 336° Northwest 120 138 5,900  Level Chicago Center
05:04PM 40.6569 -91.2092 335° Northwest 120 138 5,900  Level Chicago Center
05:05PM 40.6947 -91.2322 335° Northwest 122 140 5,900  Level Chicago Center
05:06PM 40.7256 -91.2514 335° Northwest 122 140 5,900  Level Chicago Center
05:07PM 40.7572 -91.2678 339° North 123 142 5,900  Level Chicago Center
05:08PM 40.7856 -91.2894 330° Northwest 120 138 5,900  Level Chicago Center
05:09PM 40.8189 -91.3078 337° Northwest 120 138 6,000  Climbing Chicago Center
05:10PM 40.8508 -91.3250 338° Northwest 122 140 5,900 -60 Descending Chicago Center
05:11PM 40.8797 -91.3442 333° Northwest 120 138 5,900  Level Chicago Center
05:12PM 40.9064 -91.3592 337° Northwest 110 127 6,000  Climbing Chicago Center
05:13PM 40.9289 -91.3719 337° Northwest 83 96 6,000  Level Chicago Center
05:14PM 40.9531 -91.3961 323° Northwest 103 119 6,000  Level Chicago Center
05:15PM 40.9847 -91.4142 337° Northwest 121 139 6,000  Level Chicago Center
05:16PM 41.0172 -91.4294 340° North 123 142 6,000  Level Chicago Center
05:17PM 41.0539 -91.4544 333° Northwest 124 143 6,000  Level Chicago Center
05:18PM 41.0883 -91.4711 340° North 126 145 6,000  Level Chicago Center
05:19PM 41.1178 -91.4919 332° Northwest 124 143 6,000  Level Chicago Center
05:21PM 41.1492 -91.5106 336° Northwest 124 143 6,000  Level Chicago Center
05:22PM 41.1800 -91.5300 335° Northwest 123 142 6,000  Level Chicago Center
05:23PM 41.2108 -91.5483 336° Northwest 121 139 6,000  Level Chicago Center
05:24PM 41.2475 -91.5708 335° Northwest 124 143 6,000  Level Chicago Center
05:25PM 41.2797 -91.5900 336° Northwest 127 146 6,000  Level Chicago Center
05:26PM 41.3097 -91.6097 334° Northwest 123 142 6,000  Level Chicago Center
05:27PM 41.3403 -91.6275 336° Northwest 121 139 6,000  Level Chicago Center
05:28PM 41.3781 -91.6514 335° Northwest 126 145 6,000  Level Chicago Center
05:29PM 41.4094 -91.6700 336° Northwest 125 144 6,000  Level Chicago Center
05:30PM 41.4389 -91.6889 334° Northwest 123 142 6,000  Level Chicago Center
05:31PM 41.4714 -91.7092 335° Northwest 127 146 6,000  Level Chicago Center
05:32PM 41.5028 -91.7289 335° Northwest 126 145 6,000  Level Chicago Center
05:33PM 41.5406 -91.7522 335° Northwest 124 143 6,000  Level Chicago Center
05:34PM 41.5719 -91.7733 333° Northwest 127 146 6,000  Level Chicago Center
05:35PM 41.6039 -91.7922 336° Northwest 125 144 6,000  Level Chicago Center
05:36PM 41.6353 -91.8119 335° Northwest 126 145 6,000  Level Chicago Center
05:37PM 41.6669 -91.8322 334° Northwest 127 146 6,000  Level Chicago Center
05:38PM 41.7033 -91.8547 335° Northwest 122 140 6,000  Level Chicago Center
05:39PM 41.7347 -91.8731 336° Northwest 123 142 6,000 -60 Level Chicago Center
05:40PM 41.7653 -91.8931 334° Northwest 122 140 5,900  Descending Chicago Center
05:41PM 41.7956 -91.9128 334° Northwest 122 140 6,000  Climbing Chicago Center
05:42PM 41.8278 -91.9311 337° Northwest 125 144 6,000  Level Chicago Center
05:43PM 41.8658 -91.9544 335° Northwest 127 146 6,000  Level Chicago Center
05:44PM 41.8972 -91.9744 335° Northwest 126 145 6,000 -60 Level Chicago Center
05:45PM 41.9289 -91.9944 335° Northwest 126 145 5,900  Descending Chicago Center
05:46PM 41.9594 -92.0142 334° Northwest 125 144 6,000  Climbing Chicago Center
05:47PM 41.9914 -92.0319 338° Northwest 125 144 6,000  Level Chicago Center
05:48PM 42.0275 -92.0578 332° Northwest 124 143 6,000  Level Chicago Center
05:50PM 42.0592 -92.0781 335° Northwest 125 144 6,000 -180 Level Chicago Center
05:51PM 42.0908 -92.0975 336° Northwest 125 144 5,700 -360 Descending Chicago Center
05:52PM 42.1261 -92.1181 337° Northwest 130 150 5,300 -300 Descending Chicago Center
05:53PM 42.1617 -92.1408 335° Northwest 137 158 5,100 -180 Descending Chicago Center
05:54PM 42.2022 -92.1675 334° Northwest 138 159 5,000 -60 Descending Chicago Center
05:55PM 42.2339 -92.1900 332° Northwest 134 154 5,000  Level Chicago Center
05:56PM 42.2664 -92.2100 336° Northwest 132 152 5,000 -60 Level Chicago Center
05:57PM 42.2981 -92.2297 335° Northwest 129 148 4,900 -300 Descending Chicago Center
05:58PM 42.3392 -92.2561 335° Northwest 132 152 4,400 -420 Descending Chicago Center
05:59PM 42.3786 -92.2708 345° North 140 161 4,100 -360 Descending Chicago Center
06:00PM 42.4178 -92.2858 344° North 144 166 3,700 -360 Descending Chicago Center
06:01PM 42.4558 -92.3019 343° North 145 167 3,400 -420 Descending Chicago Center
06:02PM 42.4919 -92.3225 337° Northwest 143 165 2,900 -660 Descending Chicago Center
06:03PM 42.5369 -92.3478 338° Northwest 145 167 2,100 -540 Descending Chicago Center
06:05PM 42.5764 -92.3919 320° Northwest 103 119 1,400 -300 Descending Chicago Center
06:06PM 42.5689 -92.4186 249° West 98 113 1,200 -240 Descending Chicago Center
06:08PM 42.5500 -92.4000 144° Southeast  Level FlightAware Approximate